Time;durP1;ratioP1;P1;durP2;ratioP2;P2;SDS_P1;SDS_P2;PMS_P1;PMS_P2;Temp;Humidity;BMP_temperature;BMP_pressure;BME280_temperature;BME280_humidity;BME280_pressure;Samples;Min_cycle;Max_cycle;Signal;HPM_P1;HPM_P2
2021/05/22 00:01:14;;;;;;;0.50;0.40;;;;;;;9.30;85.59;98607.13;6163322;23;20001;-76
2021/05/22 00:03:40;;;;;;;0.75;0.57;;;;;;;9.31;85.73;98619.66;6145854;23;20013;-78
2021/05/22 00:20:04;;;;;;;;;;;;;;;;;;;;;
2021/05/22 00:23:21;;;;;;;;;;;;;;;;;;;;;
2021/05/22 00:32:50;;;;;;;1.40;0.57;;;;;;;9.05;88.01;98620.13;6015233;23;20011;-78
2021/05/22 00:35:19;;;;;;;2.53;1.20;;;;;;;9.16;87.90;98645.31;6017547;23;20011;-78
2021/05/22 00:59:48;;;;;;;0.93;0.77;;;;;;;9.24;88.07;98648.16;5828184;24;20017;-79
2021/05/22 01:02:34;;;;;;;1.05;0.63;;;;;;;9.24;87.57;98659.06;5882970;24;20096;-79
2021/05/22 01:06:09;;;;;;;;;;;;;;;;;;;;;
2021/05/22 01:09:10;;;;;;;0.52;0.52;;;;;;;9.30;87.85;98658.94;5989960;24;20020;-79
2021/05/22 01:12:06;;;;;;;0.93;0.68;;;;;;;9.33;87.91;98663.81;5997243;23;20008;-77
2021/05/22 01:14:47;;;;;;;0.83;0.40;;;;;;;9.24;88.06;98653.59;6028789;23;20018;-79
2021/05/22 01:21:14;;;;;;;1.75;0.80;;;;;;;9.22;88.12;98638.66;6131430;23;20020;-79
2021/05/22 01:31:33;;;;;;;2.85;0.90;;;;;;;9.35;87.72;98667.06;6162669;23;20017;-80
2021/05/22 02:09:39;;;;;;;1.77;1.05;;;;;;;9.37;87.85;98689.38;5724461;25;20038;-80
2021/05/22 02:14:01;;;;;;;;;;;;;;;;;;;;;
2021/05/22 02:17:00;;;;;;;;;;;;;;;;;;;;;
2021/05/22 02:20:34;;;;;;;;;;;;;;;;;;;;;
2021/05/22 02:23:50;;;;;;;;;;;;;;;;;;;;;
2021/05/22 02:29:46;;;;;;;;;;;;;;;;;;;;;
2021/05/22 02:32:26;;;;;;;;;;;;;;;;;;;;;
2021/05/22 02:34:54;;;;;;;1.77;1.48;;;;;;;9.46;87.27;98717.56;5933856;24;20025;-79
2021/05/22 02:38:11;;;;;;;;;;;;;;;;;;;;;
2021/05/22 02:40:43;;;;;;;4.17;1.37;;;;;;;9.38;87.34;98718.28;6156243;23;20028;-80
2021/05/22 02:43:43;;;;;;;;;;;;;;;;;;;;;
2021/05/22 02:46:16;;;;;;;2.35;1.75;;;;;;;9.49;87.20;98730.66;6166658;23;20029;-80
2021/05/22 02:48:53;;;;;;;;;;;;;;;;;;;;;
2021/05/22 02:51:27;;;;;;;5.20;1.40;;;;;;;9.31;87.02;98712.41;6152506;23;20055;-77
2021/05/22 02:54:16;;;;;;;3.08;1.25;;;;;;;9.39;87.67;98730.81;6163421;23;20032;-79
2021/05/22 02:56:46;;;;;;;1.95;1.65;;;;;;;9.34;87.41;98739.09;6163295;23;20024;-78
2021/05/22 02:59:43;;;;;;;1.48;1.38;;;;;;;9.44;86.88;98749.81;6140230;23;20010;-78
2021/05/22 03:02:10;;;;;;;1.10;1.00;;;;;;;9.44;87.25;98758.81;6162412;23;20013;-77
2021/05/22 03:04:52;;;;;;;1.48;1.20;;;;;;;9.40;86.51;98756.97;6137066;23;20413;-78
2021/05/22 03:15:36;;;;;;;6.90;1.45;;;;;;;9.38;86.67;98761.94;6071462;23;20024;-81
2021/05/22 03:25:30;;;;;;;4.85;2.00;;;;;;;9.25;86.01;98775.22;5771724;24;20015;-77
2021/05/22 03:27:59;;;;;;;1.73;1.50;;;;;;;9.28;86.34;98773.81;5898791;23;20095;-77
2021/05/22 03:34:17;;;;;;;;;;;;;;;;;;;;;
2021/05/22 03:44:24;;;;;;;;;;;;;;;;;;;;;
2021/05/22 03:51:05;;;;;;;;;;;;;;;;;;;;;
2021/05/22 03:54:24;;;;;;;5.88;1.90;;;;;;;9.15;85.62;98785.47;6015401;23;20045;-81
2021/05/22 04:00:33;;;;;;;8.00;1.70;;;;;;;9.12;85.56;98802.44;6035992;23;20487;-81
2021/05/22 04:07:06;;;;;;;3.03;1.73;;;;;;;9.24;85.76;98828.16;5999959;23;20077;-80
2021/05/22 04:13:21;;;;;;;;;;;;;;;;;;;;;
2021/05/22 04:20:02;;;;;;;9.70;2.40;;;;;;;9.10;86.08;98827.28;6038904;23;20018;-79
2021/05/22 04:23:40;;;;;;;5.35;2.05;;;;;;;9.14;85.95;98833.78;6021566;23;20486;-80
2021/05/22 04:41:19;;;;;;;;;;;;;;;;;;;;;
2021/05/22 04:44:41;;;;;;;;;;;;;;;;;;;;;
2021/05/22 04:47:55;;;;;;;;;;;;;;;;;;;;;
2021/05/22 04:50:28;;;;;;;5.50;2.10;;;;;;;9.08;85.38;98878.56;5954983;23;20091;-78
2021/05/22 04:53:29;;;;;;;4.90;1.85;;;;;;;9.20;85.73;98889.88;5985492;23;20016;-79
2021/05/22 04:56:17;;;;;;;4.60;1.90;;;;;;;9.12;85.37;98874.16;5986299;23;20011;-78
2021/05/22 04:58:56;;;;;;;4.38;1.67;;;;;;;9.08;85.52;98873.94;5981366;23;20360;-75
2021/05/22 05:01:32;;;;;;;8.18;1.92;;;;;;;9.20;85.46;98884.41;6139370;23;20009;-80
2021/05/22 05:03:58;;;;;;;6.72;2.05;;;;;;;9.14;84.94;98877.41;6115563;23;20005;-79
2021/05/22 05:06:27;;;;;;;8.90;2.33;;;;;;;9.24;85.70;98898.25;6132805;23;20013;-81
2021/05/22 05:09:10;;;;;;;8.48;2.65;;;;;;;9.18;85.38;98883.88;6106341;23;20088;-78
2021/05/22 05:11:35;;;;;;;3.10;1.75;;;;;;;9.12;85.30;98874.16;6080652;23;20429;-77
2021/05/22 05:14:26;;;;;;;5.05;1.73;;;;;;;9.33;85.28;98899.22;6154605;23;20093;-78
2021/05/22 05:17:02;;;;;;;2.53;2.10;;;;;;;9.35;84.53;98915.31;6160732;23;20001;-81
2021/05/22 05:19:56;;;;;;;4.80;1.92;;;;;;;9.28;84.59;98895.75;6138012;23;20325;-79
2021/05/22 05:22:35;;;;;;;6.53;2.30;;;;;;;9.38;84.77;98909.25;6126533;23;20004;-78
2021/05/22 05:25:51;;;;;;;;;;;;;;;;;;;;;
2021/05/22 05:28:19;;;;;;;5.05;1.90;;;;;;;9.49;84.22;98916.19;6162416;23;20029;-78
2021/05/22 05:31:42;;;;;;;3.40;1.63;;;;;;;9.57;84.54;98918.22;6111163;23;20032;-77
2021/05/22 05:33:51;;;;;;;6.40;2.60;;;;;;;9.71;84.35;98939.31;6082044;23;20042;-77
2021/05/22 05:40:47;;;;;;;;;;;;;;;;;;;;;
2021/05/22 05:43:27;;;;;;;3.92;2.08;;;;;;;9.81;83.77;98938.34;6042504;23;20425;-77
2021/05/22 05:46:32;;;;;;;3.67;2.47;;;;;;;9.87;83.82;98953.53;6018487;23;20011;-77
2021/05/22 05:49:58;;;;;;;8.13;2.25;;;;;;;9.85;83.54;98953.84;5994712;23;20427;-77
2021/05/22 05:53:23;;;;;;;;;;;;;;;;;;;;;
2021/05/22 05:56:28;;;;;;;;;;;;;;;;;;;;;
2021/05/22 06:03:22;;;;;;;;;;;;;;;;;;;;;
2021/05/22 06:09:01;;;;;;;5.40;1.60;;;;;;;10.23;83.42;98989.28;5830857;24;20019;-78
2021/05/22 06:11:29;;;;;;;4.53;1.73;;;;;;;10.25;82.83;98970.69;5860189;24;20395;-79
2021/05/22 06:14:13;;;;;;;;;;;;;;;;;;;;;
2021/05/22 06:17:02;;;;;;;3.13;1.40;;;;;;;10.58;81.87;98994.47;5938760;24;20040;-78
2021/05/22 06:19:28;;;;;;;3.53;1.50;;;;;;;10.59;81.35;99002.38;5960289;23;20069;-81
2021/05/22 06:22:04;;;;;;;7.75;1.27;;;;;;;10.62;81.68;98995.50;6112321;23;20026;-81
2021/05/22 06:24:38;;;;;;;7.03;1.52;;;;;;;10.79;81.21;99011.28;6111818;23;20008;-78
2021/05/22 06:27:09;;;;;;;3.90;1.75;;;;;;;10.85;80.70;99015.56;6131937;23;19998;-79
2021/05/22 06:29:38;;;;;;;3.15;0.80;;;;;;;10.83;80.56;99013.16;6111979;23;20029;-80
2021/05/22 06:32:04;;;;;;;1.38;0.77;;;;;;;10.87;80.69;98996.94;6113620;23;20014;-84
2021/05/22 06:34:44;;;;;;;;;;;;;;;;;;;;;
2021/05/22 06:37:13;;;;;;;6.75;1.63;;;;;;;11.05;78.97;99008.88;6118838;23;20013;-82
2021/05/22 06:39:41;;;;;;;1.30;0.80;;;;;;;11.30;80.06;99032.22;6095668;23;20041;-83
2021/05/22 06:42:07;;;;;;;1.45;1.20;;;;;;;11.43;79.41;99043.44;6115513;23;20010;-82
2021/05/22 06:45:26;;;;;;;2.60;1.40;;;;;;;11.38;79.53;99021.66;6111571;23;20005;-76
2021/05/22 06:47:40;;;;;;;3.60;1.10;;;;;;;11.37;78.92;99025.50;6098700;23;20038;-76
2021/05/22 06:52:55;;;;;;;1.80;0.68;;;;;;;11.64;78.80;99047.38;6138262;23;20005;-74
2021/05/22 06:55:24;;;;;;;1.98;0.98;;;;;;;11.53;77.79;99043.22;6107980;23;20094;-75
2021/05/22 06:57:54;;;;;;;5.43;0.98;;;;;;;11.72;78.19;99069.69;6112597;23;20336;-77
2021/05/22 07:00:29;;;;;;;4.20;1.27;;;;;;;11.73;77.80;99060.34;6112597;23;20006;-77
2021/05/22 07:02:57;;;;;;;2.28;1.00;;;;;;;11.76;76.84;99068.75;6138342;23;20114;-77
2021/05/22 07:05:31;;;;;;;1.75;0.88;;;;;;;11.93;77.06;99078.25;6112256;23;20021;-78
2021/05/22 07:08:05;;;;;;;1.95;0.60;;;;;;;11.99;76.34;99077.88;6113387;23;20032;-76
2021/05/22 07:10:33;;;;;;;1.77;1.15;;;;;;;12.23;76.33;99090.47;6108674;23;20432;-76
2021/05/22 07:13:02;;;;;;;1.15;0.50;;;;;;;12.35;75.89;99088.00;6152662;23;20037;-77
2021/05/22 07:15:27;;;;;;;3.83;0.70;;;;;;;12.32;74.99;99088.59;6141685;23;20025;-77
2021/05/22 07:17:58;;;;;;;2.55;0.70;;;;;;;12.45;75.36;99102.59;6172566;23;20005;-80
2021/05/22 07:20:47;;;;;;;1.23;0.75;;;;;;;12.48;74.79;99107.44;6141911;23;20020;-80
2021/05/22 07:23:21;;;;;;;4.07;0.47;;;;;;;12.59;75.16;99097.84;6166933;23;20001;-78
2021/05/22 07:25:54;;;;;;;1.45;0.45;;;;;;;12.59;74.61;99097.84;6139846;23;20420;-79
2021/05/22 07:28:55;;;;;;;;;;;;;;;;;;;;;
2021/05/22 07:31:21;;;;;;;0.43;0.30;;;;;;;12.78;74.06;99116.06;6165760;23;20033;-79
2021/05/22 07:34:02;;;;;;;;;;;;;;;;;;;;;
2021/05/22 07:36:34;;;;;;;1.27;0.43;;;;;;;12.63;71.99;99107.09;6160380;23;20448;-81
2021/05/22 07:39:16;;;;;;;7.28;0.85;;;;;;;12.67;71.40;99126.47;6141147;23;20005;-80
2021/05/22 07:42:01;;;;;;;1.85;0.40;;;;;;;12.66;72.44;99131.16;6167564;23;20409;-79
2021/05/22 07:44:27;;;;;;;0.30;0.30;;;;;;;12.69;73.24;99136.00;6141110;23;20006;-78
2021/05/22 07:46:55;;;;;;;0.68;0.57;;;;;;;12.77;73.15;99136.38;6165848;23;20001;-77
2021/05/22 07:52:08;;;;;;;1.98;0.60;;;;;;;13.05;72.45;99137.88;6120276;23;20005;-78
2021/05/22 07:54:37;;;;;;;0.43;0.40;;;;;;;13.13;71.86;99140.94;6163454;23;20006;-79
2021/05/22 07:57:15;;;;;;;2.00;0.60;;;;;;;13.20;70.12;99150.38;6115419;23;20017;-77
2021/05/22 07:59:53;;;;;;;0.40;0.40;;;;;;;13.10;70.39;99139.66;6141483;23;20024;-78
2021/05/22 08:02:21;;;;;;;1.35;0.60;;;;;;;13.15;70.29;99155.19;6152434;23;20005;-75
2021/05/22 08:05:05;;;;;;;1.33;0.40;;;;;;;13.17;70.36;99139.19;6135207;23;20425;-76
2021/05/22 08:07:30;;;;;;;6.65;0.47;;;;;;;13.26;70.17;99145.56;6159561;23;20009;-79
2021/05/22 08:09:56;;;;;;;2.35;0.60;;;;;;;13.38;68.30;99151.28;6162284;23;20001;-77
2021/05/22 08:12:24;;;;;;;2.72;0.40;;;;;;;13.60;68.73;99160.59;6157914;23;20085;-76
2021/05/22 08:14:50;;;;;;;2.40;0.35;;;;;;;13.93;68.40;99154.72;6134822;23;20289;-77
2021/05/22 08:17:22;;;;;;;0.75;0.30;;;;;;;14.13;68.86;99154.13;6159019;23;20020;-76
2021/05/22 08:19:48;;;;;;;9.27;0.43;;;;;;;14.17;67.69;99159.00;6158202;23;20005;-77
2021/05/22 08:22:13;;;;;;;1.13;0.30;;;;;;;14.09;67.64;99166.91;6164329;23;20683;-75
2021/05/22 08:24:39;;;;;;;7.10;0.52;;;;;;;13.92;65.76;99175.09;6163206;23;20085;-75
2021/05/22 08:27:05;;;;;;;0.25;0.13;;;;;;;13.78;66.41;99181.53;6129144;23;20024;-75
2021/05/22 08:29:31;;;;;;;2.65;0.50;;;;;;;13.69;65.64;99180.66;6161029;23;20009;-75
2021/05/22 08:31:56;;;;;;;2.42;0.65;;;;;;;13.66;67.01;99181.31;6132672;23;20020;-76
2021/05/22 08:34:25;;;;;;;2.72;0.40;;;;;;;13.68;66.58;99190.06;6138648;23;20025;-75
2021/05/22 08:37:20;;;;;;;0.50;0.15;;;;;;;13.69;65.21;99194.41;6141681;23;20001;-79
2021/05/22 08:40:48;;;;;;;0.65;0.38;;;;;;;13.81;66.31;99195.75;6128558;23;20005;-79
2021/05/22 08:43:14;;;;;;;0.63;0.30;;;;;;;13.75;63.07;99184.06;6064528;23;20084;-79
2021/05/22 08:46:06;;;;;;;0.47;0.20;;;;;;;13.88;60.90;99207.09;6054430;23;20007;-78
2021/05/22 08:48:40;;;;;;;0.32;0.32;;;;;;;13.96;60.87;99203.56;6110831;23;20067;-80
2021/05/22 08:51:19;;;;;;;;;;;;;;;;;;;;;
2021/05/22 08:54:27;;;;;;;;;;;;;;;;;;;;;
2021/05/22 08:56:57;;;;;;;1.75;0.32;;;;;;;14.27;58.66;99221.91;6140481;23;20133;-78
2021/05/22 08:59:25;;;;;;;0.47;0.45;;;;;;;14.33;59.12;99217.88;6137718;23;20010;-79
2021/05/22 09:02:21;;;;;;;0.75;0.25;;;;;;;14.42;59.38;99215.16;6166088;23;20005;-78
2021/05/22 09:05:10;;;;;;;0.22;0.22;;;;;;;14.49;57.32;99227.28;6134056;23;20028;-77
2021/05/22 09:08:02;;;;;;;0.17;0.10;;;;;;;14.36;58.79;99216.44;6136978;23;20016;-79
2021/05/22 09:10:35;;;;;;;0.73;0.30;;;;;;;14.20;58.99;99229.81;6138361;23;20009;-81
2021/05/22 09:13:33;;;;;;;0.88;0.20;;;;;;;14.18;59.63;99237.56;6139991;23;20069;-79
2021/05/22 09:16:09;;;;;;;0.50;0.20;;;;;;;13.99;59.64;99222.16;6113027;23;20079;-77
2021/05/22 09:18:37;;;;;;;0.63;0.20;;;;;;;14.01;58.54;99221.84;6142327;23;20024;-79
2021/05/22 09:21:43;;;;;;;0.38;0.20;;;;;;;14.19;58.56;99239.19;6140675;23;20012;-80
2021/05/22 09:24:29;;;;;;;0.70;0.20;;;;;;;14.14;58.23;99235.47;6138751;23;20028;-77
2021/05/22 09:27:18;;;;;;;1.38;0.10;;;;;;;14.06;59.10;99219.75;6108586;23;20010;-79
2021/05/22 09:29:51;;;;;;;1.42;0.35;;;;;;;14.06;57.90;99230.75;6132126;23;20084;-78
2021/05/22 09:32:52;;;;;;;;;;;;;;;;;;;;;
2021/05/22 09:35:22;;;;;;;1.70;0.20;;;;;;;14.27;57.75;99241.16;6132441;23;20092;-77
2021/05/22 09:38:23;;;;;;;0.35;0.10;;;;;;;14.53;57.53;99245.91;6132720;23;20013;-77
2021/05/22 09:41:26;;;;;;;1.85;0.30;;;;;;;14.61;58.05;99242.34;6104562;23;20405;-80
2021/05/22 09:44:13;;;;;;;1.83;0.20;;;;;;;14.99;56.41;99255.53;6131112;23;20312;-79
2021/05/22 09:47:19;;;;;;;0.43;0.20;;;;;;;15.41;54.82;99269.56;6162328;23;20076;-79
2021/05/22 09:49:49;;;;;;;0.52;0.20;;;;;;;15.54;54.14;99260.31;6137595;23;20016;-78
2021/05/22 09:52:25;;;;;;;1.00;0.10;;;;;;;15.74;54.44;99269.03;6127773;23;20068;-79
2021/05/22 09:55:06;;;;;;;0.60;0.20;;;;;;;15.72;52.87;99265.78;6166806;23;20006;-79
2021/05/22 09:57:32;;;;;;;1.02;0.10;;;;;;;15.60;52.75;99268.41;6138634;23;20328;-76
2021/05/22 10:00:20;;;;;;;0.20;0.00;;;;;;;15.73;54.73;99277.63;6164627;23;20032;-75
2021/05/22 10:02:51;;;;;;;0.70;0.25;;;;;;;15.82;53.78;99281.19;6133288;23;20788;-75
2021/05/22 10:05:29;;;;;;;0.10;0.10;;;;;;;15.95;53.84;99284.88;6140355;23;20025;-75
2021/05/22 10:08:03;;;;;;;1.00;0.20;;;;;;;16.10;53.65;99270.53;6164884;23;20006;-73
2021/05/22 10:10:46;;;;;;;0.10;0.10;;;;;;;16.41;53.63;99285.94;6137816;23;20112;-76
2021/05/22 10:13:15;;;;;;;0.00;0.00;;;;;;;16.53;52.46;99294.34;6136808;23;20104;-79
2021/05/22 10:15:48;;;;;;;0.22;0.10;;;;;;;16.68;53.14;99272.81;6164732;23;20025;-77
2021/05/22 10:18:15;;;;;;;0.20;0.20;;;;;;;17.24;52.77;99292.72;6114706;23;20005;-75
2021/05/22 10:21:10;;;;;;;;;;;;;;;;;;;;;
2021/05/22 10:23:43;;;;;;;0.38;0.10;;;;;;;17.74;49.07;99298.41;6157433;23;20035;-77
2021/05/22 10:26:37;;;;;;;0.35;0.20;;;;;;;18.30;49.52;99284.94;6139159;23;20001;-77
2021/05/22 10:29:20;;;;;;;;;;;;;;;;;;;;;
2021/05/22 10:31:47;;;;;;;0.10;0.10;;;;;;;19.05;45.01;99293.16;6164200;23;20017;-76
2021/05/22 10:34:23;;;;;;;0.38;0.10;;;;;;;19.15;44.44;99303.75;6158464;23;20009;-78
2021/05/22 10:37:33;;;;;;;0.10;0.10;;;;;;;19.22;45.02;99306.75;6139118;23;20002;-80
2021/05/22 10:39:59;;;;;;;0.32;0.10;;;;;;;18.93;44.87;99299.56;6158126;23;20005;-76
2021/05/22 10:42:27;;;;;;;0.80;0.20;;;;;;;18.58;45.38;99311.91;6137039;23;20385;-76
2021/05/22 10:45:15;;;;;;;0.40;0.20;;;;;;;18.07;45.23;99306.69;6132542;23;20060;-72
2021/05/22 10:48:02;;;;;;;1.00;0.20;;;;;;;17.47;46.41;99303.41;6119976;23;20503;-73
2021/05/22 10:50:47;;;;;;;2.63;0.17;;;;;;;17.04;47.24;99323.91;6120065;23;20001;-75
2021/05/22 10:53:23;;;;;;;0.25;0.10;;;;;;;16.70;48.40;99325.72;6127461;23;20013;-75
2021/05/22 10:56:21;;;;;;;0.47;0.20;;;;;;;16.49;49.52;99306.38;6117346;23;20023;-77
2021/05/22 10:59:11;;;;;;;0.77;0.13;;;;;;;16.53;49.51;99319.19;6150380;23;20028;-76
2021/05/22 11:01:46;;;;;;;;;;;;;;;;;;;;;
2021/05/22 11:04:16;;;;;;;0.57;0.57;;;;;;;17.61;49.89;99331.56;6151025;23;20097;-76
2021/05/22 11:06:52;;;;;;;0.35;0.22;;;;;;;17.99;48.26;99334.44;6126088;23;20427;-76
2021/05/22 11:12:28;;;;;;;0.65;0.35;;;;;;;19.12;47.61;99346.03;6154091;23;20072;-75
2021/05/22 11:14:56;;;;;;;2.40;0.20;;;;;;;19.94;44.93;99347.56;6122797;23;20018;-75
2021/05/22 11:20:06;;;;;;;0.45;0.28;;;;;;;20.12;42.07;99347.25;6125723;23;20009;-76
2021/05/22 11:22:53;;;;;;;0.30;0.20;;;;;;;19.58;42.43;99327.16;6129652;23;20013;-76
2021/05/22 11:25:18;;;;;;;0.40;0.10;;;;;;;18.89;43.28;99332.66;6125515;23;20001;-73
2021/05/22 11:27:47;;;;;;;3.50;0.25;;;;;;;18.51;44.14;99346.88;6124009;23;20013;-75
2021/05/22 11:30:16;;;;;;;2.50;0.20;;;;;;;18.15;45.37;99343.72;6120426;23;20081;-74
2021/05/22 11:32:56;;;;;;;0.63;0.30;;;;;;;17.86;45.57;99339.09;6100111;23;20017;-71
2021/05/22 11:41:18;;;;;;;1.00;0.40;;;;;;;16.69;47.93;99329.63;6124253;23;20390;-76
2021/05/22 11:43:45;;;;;;;1.27;0.20;;;;;;;16.22;48.67;99333.25;6125862;23;20333;-76
2021/05/22 11:46:29;;;;;;;0.43;0.40;;;;;;;16.03;48.79;99352.94;6129538;23;20006;-77
2021/05/22 11:53:00;;;;;;;0.30;0.20;;;;;;;16.06;49.39;99341.25;6095980;23;20013;-76
2021/05/22 11:55:55;;;;;;;;;;;;;;;;;;;;;
2021/05/22 11:59:09;;;;;;;;;;;;;;;;;;;;;
2021/05/22 12:02:32;;;;;;;0.05;0.00;;;;;;;17.96;43.83;99361.66;6142470;23;20009;-76
2021/05/22 12:05:58;;;;;;;0.63;0.40;;;;;;;18.83;42.74;99373.59;5994137;24;20439;-75
2021/05/22 12:08:47;;;;;;;0.22;0.10;;;;;;;19.09;39.81;99368.91;5986877;24;20016;-74
2021/05/22 12:11:44;;;;;;;;;;;;;;;;;;;;;
2021/05/22 12:14:25;;;;;;;;;;;;;;;;;;;;;
2021/05/22 12:17:03;;;;;;;0.88;0.20;;;;;;;19.81;39.04;99373.78;6123498;23;20065;-77
2021/05/22 12:19:50;;;;;;;;;;;;;;;;;;;;;
2021/05/22 12:23:24;;;;;;;0.63;0.52;;;;;;;19.10;40.58;99364.94;6168072;23;20005;-79
2021/05/22 12:26:29;;;;;;;0.55;0.38;;;;;;;18.31;41.42;99400.00;6084394;23;20001;-80
2021/05/22 12:29:37;;;;;;;0.30;0.25;;;;;;;17.52;41.79;99393.59;6123736;23;20009;-80
2021/05/22 12:32:22;;;;;;;0.30;0.20;;;;;;;17.18;42.90;99389.94;6145908;23;20018;-81
2021/05/22 12:35:19;;;;;;;1.75;0.20;;;;;;;17.78;43.43;99396.13;6124805;23;20058;-81
2021/05/22 12:37:57;;;;;;;0.50;0.28;;;;;;;18.47;41.70;99393.78;6121156;23;20002;-80
2021/05/22 12:41:06;;;;;;;1.85;0.20;;;;;;;19.47;41.61;99400.91;6147603;23;20009;-80
2021/05/22 12:44:41;;;;;;;0.63;0.20;;;;;;;21.45;38.83;99387.31;6056582;23;20017;-80
2021/05/22 12:47:37;;;;;;;0.20;0.10;;;;;;;21.89;36.61;99369.53;6011503;23;20011;-81
2021/05/22 12:51:18;;;;;;;;;;;;;;;;;;;;;
2021/05/22 12:53:45;;;;;;;0.25;0.10;;;;;;;20.27;35.84;99398.38;6079445;23;20014;-81
2021/05/22 12:57:00;;;;;;;1.00;0.20;;;;;;;19.15;37.56;99378.56;6041015;23;20006;-81
2021/05/22 12:59:57;;;;;;;0.30;0.20;;;;;;;17.99;40.85;99378.72;6000417;23;20007;-79
2021/05/22 13:02:38;;;;;;;1.05;0.20;;;;;;;17.36;42.17;99409.97;6017536;23;20014;-78
2021/05/22 13:05:28;;;;;;;0.75;0.20;;;;;;;16.76;45.01;99412.72;6135123;23;20380;-77
2021/05/22 13:12:15;;;;;;;;;;;;;;;;;;;;;
2021/05/22 13:18:06;;;;;;;0.75;0.30;;;;;;;17.51;45.09;99403.84;6063001;23;20014;-76
2021/05/22 13:20:55;;;;;;;;;;;;;;;19.04;40.73;99411.50;6125943;23;20010;-76
2021/05/22 13:23:58;;;;;;;0.45;0.20;;;;;;;19.56;38.42;99409.88;6090921;23;19913;-77
2021/05/22 13:26:37;;;;;;;0.82;0.50;;;;;;;20.49;37.70;99399.75;6103308;23;20017;-78
2021/05/22 13:29:13;;;;;;;0.88;0.32;;;;;;;21.75;34.94;99419.34;6108273;23;20006;-77
2021/05/22 13:32:09;;;;;;;;;;;;;;;;;;;;;
2021/05/22 13:34:50;;;;;;;2.63;0.40;;;;;;;23.81;30.85;99415.97;6137358;23;20352;-78
2021/05/22 13:40:39;;;;;;;1.40;0.40;;;;;;;23.09;29.78;99428.91;6098801;23;20009;-80
2021/05/22 13:43:14;;;;;;;4.45;0.65;;;;;;;21.78;31.56;99413.03;6108682;23;20014;-80
2021/05/22 13:45:51;;;;;;;2.50;0.60;;;;;;;20.55;33.31;99401.09;6135384;23;20012;-75
2021/05/22 13:48:19;;;;;;;4.05;0.75;;;;;;;19.91;34.36;99414.88;6085291;23;20006;-77
2021/05/22 13:50:57;;;;;;;;;;;;;;;;;;;;;
2021/05/22 13:53:26;;;;;;;2.20;0.50;;;;;;;19.59;35.35;99417.50;6130715;23;20022;-74
2021/05/22 13:56:20;;;;;;;2.38;0.55;;;;;;;19.29;35.88;99416.97;6126226;23;20040;-77
2021/05/22 13:58:49;;;;;;;1.05;0.63;;;;;;;19.87;35.49;99419.50;6128638;23;20049;-73
2021/05/22 14:01:29;;;;;;;2.22;0.65;;;;;;;20.79;33.24;99399.31;6103205;23;20623;-76
2021/05/22 14:04:04;;;;;;;0.93;0.57;;;;;;;21.47;33.30;99419.53;6105596;23;20061;-75
2021/05/22 14:06:33;;;;;;;5.53;0.60;;;;;;;22.07;30.88;99435.88;6108733;23;20010;-74
2021/05/22 14:09:04;;;;;;;1.60;0.65;;;;;;;21.72;30.77;99420.88;6134389;23;20009;-80
2021/05/22 14:11:38;;;;;;;2.25;0.88;;;;;;;21.41;31.09;99433.72;6138082;23;20025;-79
2021/05/22 14:14:04;;;;;;;1.13;0.40;;;;;;;21.50;32.87;99427.16;6130595;23;20401;-81
2021/05/22 14:16:31;;;;;;;3.15;0.63;;;;;;;22.40;31.55;99432.56;6169358;23;20072;-80
2021/05/22 14:18:59;;;;;;;1.02;0.32;;;;;;;22.99;31.76;99435.13;6118965;23;20021;-80
2021/05/22 14:21:37;;;;;;;;;;;;;;;;;;;;;
2021/05/22 14:24:06;;;;;;;2.25;2.10;;;;;;;26.01;26.40;99456.94;6124215;23;20025;-80
2021/05/22 14:26:41;;;;;;;3.53;2.97;;;;;;;27.13;24.91;99432.66;6166959;23;20002;-80
2021/05/22 14:29:27;;;;;;;3.88;0.70;;;;;;;27.65;23.30;99465.84;6163202;23;19997;-76
2021/05/22 14:32:00;;;;;;;1.10;0.47;;;;;;;26.55;22.79;99457.06;6139443;23;20344;-80
2021/05/22 14:34:36;;;;;;;1.05;0.50;;;;;;;25.31;25.35;99461.75;6141624;23;20016;-79
2021/05/22 14:37:12;;;;;;;0.77;0.40;;;;;;;24.08;25.67;99462.56;6140421;23;20009;-78
2021/05/22 14:39:41;;;;;;;5.45;0.52;;;;;;;23.17;27.29;99457.72;6169270;23;20313;-78
2021/05/22 14:42:07;;;;;;;1.98;0.47;;;;;;;22.79;28.71;99470.63;6168341;23;20025;-79
2021/05/22 14:44:38;;;;;;;0.47;0.20;;;;;;;22.60;28.14;99440.84;6168280;23;20008;-79
2021/05/22 14:47:03;;;;;;;2.20;0.52;;;;;;;22.26;29.03;99465.69;6167793;23;20016;-77
2021/05/22 14:49:32;;;;;;;0.50;0.35;;;;;;;21.78;29.71;99461.13;6143746;23;20013;-79
2021/05/22 14:52:03;;;;;;;2.30;0.52;;;;;;;21.18;30.08;99460.59;6141902;23;20032;-78
2021/05/22 14:54:52;;;;;;;;;;;;;;;;;;;;;
2021/05/22 14:57:28;;;;;;;1.27;0.35;;;;;;;19.75;32.78;99466.69;6163831;23;20020;-77
2021/05/22 15:00:02;;;;;;;1.00;0.55;;;;;;;19.13;33.25;99469.56;6141830;23;20040;-78
2021/05/22 15:02:30;;;;;;;3.53;0.65;;;;;;;18.61;35.09;99457.16;6093391;23;20005;-79
2021/05/22 15:04:58;;;;;;;0.63;0.50;;;;;;;18.26;36.10;99455.56;6136897;23;20114;-78
2021/05/22 15:07:23;;;;;;;2.05;0.57;;;;;;;17.95;35.61;99470.66;6132530;23;20029;-74
2021/05/22 15:09:54;;;;;;;1.38;0.50;;;;;;;17.49;37.40;99455.88;6125349;23;20060;-75
2021/05/22 15:12:19;;;;;;;1.85;0.60;;;;;;;17.38;38.21;99465.72;6157731;23;20008;-73
2021/05/22 15:14:45;;;;;;;2.60;0.52;;;;;;;17.32;38.53;99461.50;6100767;23;20092;-73
2021/05/22 15:17:10;;;;;;;1.60;0.40;;;;;;;17.28;37.94;99476.00;6133959;23;20013;-73
2021/05/22 15:19:36;;;;;;;3.10;0.45;;;;;;;17.18;37.78;99479.13;6105920;23;20020;-74
2021/05/22 15:22:01;;;;;;;2.50;0.50;;;;;;;16.96;38.33;99473.91;6148168;23;20005;-76
2021/05/22 15:24:29;;;;;;;5.05;0.40;;;;;;;16.93;38.50;99476.19;6131393;23;20014;-74
2021/05/22 15:26:55;;;;;;;0.65;0.32;;;;;;;17.50;38.50;99471.31;6133674;23;20093;-76
2021/05/22 15:29:21;;;;;;;1.27;0.47;;;;;;;18.77;35.98;99479.44;6105359;23;20340;-79
2021/05/22 15:31:47;;;;;;;1.40;0.30;;;;;;;20.04;35.57;99482.22;6111515;23;20045;-77
2021/05/22 15:34:20;;;;;;;0.73;0.30;;;;;;;21.10;32.50;99463.19;6160656;23;20009;-78
2021/05/22 15:36:59;;;;;;;0.80;0.20;;;;;;;21.15;31.27;99480.75;6159114;23;20065;-75
2021/05/22 15:39:34;;;;;;;;;;;;;;;;;;;;;
2021/05/22 15:42:56;;;;;;;1.42;0.55;;;;;;;21.53;32.18;99476.50;6158584;23;20068;-76
2021/05/22 15:46:43;;;;;;;2.83;0.40;;;;;;;22.61;29.47;99478.69;6126660;23;20333;-74
2021/05/22 16:05:48;;;;;;;0.75;0.25;;;;;;;24.49;23.49;99498.94;6040058;23;20489;-73
2021/05/22 16:09:23;;;;;;;;;;;;;;;;;;;;;
2021/05/22 16:12:30;;;;;;;1.48;0.32;;;;;;;23.81;24.24;99524.81;6040720;23;20046;-79
2021/05/22 16:26:26;;;;;;;1.25;0.40;;;;;;;21.56;26.71;99517.50;6032891;23;20015;-76
2021/05/22 16:36:15;;;;;;;0.70;0.22;;;;;;;21.03;26.36;99524.16;6009950;23;20070;-75
2021/05/22 16:38:46;;;;;;;0.85;0.22;;;;;;;20.37;27.71;99514.44;6008909;23;20019;-74
2021/05/22 16:41:53;;;;;;;1.17;0.80;;;;;;;20.92;27.76;99545.31;6003225;23;20442;-73
2021/05/22 16:44:21;;;;;;;2.17;0.45;;;;;;;20.58;28.28;99530.91;6014310;23;20011;-70
2021/05/22 16:47:19;;;;;;;0.90;0.20;;;;;;;20.24;29.69;99538.69;6039523;23;20031;-74
2021/05/22 16:57:34;;;;;;;;;;;;;;;;;;;;;
2021/05/22 17:00:11;;;;;;;0.60;0.20;;;;;;;21.03;28.48;99535.28;5951548;24;20104;-72
2021/05/22 17:02:51;;;;;;;;;;;;;;;;;;;;;
2021/05/22 17:05:20;;;;;;;0.55;0.25;;;;;;;20.99;27.44;99556.59;6155281;23;20080;-70
2021/05/22 17:08:04;;;;;;;;;;;;;;;;;;;;;
2021/05/22 17:14:32;;;;;;;;;;;;;;;;;;;;;
2021/05/22 17:32:03;;;;;;;2.10;0.40;;;;;;;19.79;30.27;99559.97;5940230;24;20472;-75
2021/05/22 17:34:54;;;;;;;;;;;;;;;;;;;;;
2021/05/22 17:37:32;;;;;;;2.13;0.63;;;;;;;18.64;31.39;99548.63;5981362;23;20403;-74
2021/05/22 17:40:22;;;;;;;1.38;0.40;;;;;;;18.35;33.35;99579.22;5958278;24;20007;-75
2021/05/22 17:50:01;;;;;;;0.70;0.43;;;;;;;18.40;31.68;99576.22;6038145;23;20051;-74
2021/05/22 17:52:31;;;;;;;2.20;0.40;;;;;;;18.38;31.08;99587.63;6076653;23;20039;-73
2021/05/22 17:55:33;;;;;;;0.80;0.43;;;;;;;18.10;30.61;99565.25;6059197;23;20036;-77
2021/05/22 17:58:14;;;;;;;;;;;;;;;;;;;;;
2021/05/22 18:01:54;;;;;;;;;;;;;;;;;;;;;
2021/05/22 18:04:24;;;;;;;10.82;0.50;;;;;;;17.26;32.76;99596.28;6141582;23;20388;-75
2021/05/22 18:07:10;;;;;;;1.13;0.47;;;;;;;16.83;34.33;99595.22;6138188;23;20009;-76
2021/05/22 18:16:30;;;;;;;1.00;0.30;;;;;;;15.95;36.35;99585.41;6018228;23;20071;-79
2021/05/22 18:19:32;;;;;;;;;;;;;;;;;;;;;
2021/05/22 18:22:18;;;;;;;3.13;0.30;;;;;;;15.31;37.71;99609.50;6051565;23;20014;-77
2021/05/22 18:24:46;;;;;;;0.13;0.00;;;;;;;14.77;38.64;99601.28;6030390;23;20037;-82
2021/05/22 18:30:06;;;;;;;4.30;0.40;;;;;;;13.91;41.37;99607.69;6073236;23;20033;-79
2021/05/22 18:32:34;;;;;;;2.10;0.40;;;;;;;13.54;42.34;99598.56;6138885;23;20005;-77
2021/05/22 18:35:02;;;;;;;2.35;0.65;;;;;;;13.23;44.04;99599.16;6139014;23;20010;-78
2021/05/22 18:37:56;;;;;;;2.15;0.50;;;;;;;12.95;45.50;99626.53;6162664;23;20045;-79